createdAt,value
2022-07-31T00:02:09.425Z,22.27
2022-07-31T00:04:37.909Z,22.02
2022-07-31T00:07:06.785Z,21.88
2022-07-31T00:09:52.578Z,21.29
2022-07-31T00:12:23.581Z,21.57
2022-07-31T00:14:51.682Z,21.36
2022-07-31T00:17:20.371Z,21.58
2022-07-31T00:19:49.007Z,21.34
2022-07-31T00:22:16.692Z,21.87
2022-07-31T00:24:44.914Z,21.85
2022-07-31T00:27:13.876Z,21.84
2022-07-31T00:29:41.783Z,22.05
2022-07-31T00:32:11.558Z,22.17
2022-07-31T00:34:42.560Z,21.85
2022-07-31T00:37:10.959Z,21.79
2022-07-31T00:39:40.252Z,22.16
2022-07-31T00:42:22.804Z,22.09
2022-07-31T00:44:51.959Z,22.17
2022-07-31T00:47:23.799Z,22.01
2022-07-31T00:49:52.322Z,22.44
2022-07-31T00:52:21.569Z,22.25
2022-07-31T00:54:50.123Z,22.10
2022-07-31T00:57:18.267Z,21.82
2022-07-31T00:59:49.390Z,22.01
2022-07-31T01:02:17.655Z,22.17
2022-07-31T01:04:46.294Z,22.30
2022-07-31T01:07:15.112Z,22.23
2022-07-31T01:09:43.278Z,22.37
2022-07-31T01:12:43.936Z,22.41
2022-07-31T01:15:14.210Z,22.41
2022-07-31T01:17:45.537Z,22.19
2022-07-31T01:20:15.463Z,22.18
2022-07-31T01:22:57.804Z,21.96
2022-07-31T01:25:33.592Z,22.04
2022-07-31T01:28:39.317Z,22.07
2022-07-31T01:31:26.014Z,22.39
2022-07-31T01:34:04.063Z,22.28
2022-07-31T01:36:37.632Z,21.71
2022-07-31T01:39:06.676Z,21.68
2022-07-31T01:41:41.485Z,21.92
2022-07-31T01:44:14.188Z,21.96
2022-07-31T01:46:45.199Z,21.64
2022-07-31T01:49:14.423Z,21.59
2022-07-31T01:51:45.790Z,21.47
2022-07-31T01:54:19.026Z,21.41
2022-07-31T01:56:49.083Z,21.30
2022-07-31T01:59:20.424Z,21.15
2022-07-31T02:01:53.969Z,21.31
2022-07-31T02:04:22.834Z,21.10
2022-07-31T02:06:51.152Z,21.41
2022-07-31T02:09:20.343Z,21.28
2022-07-31T02:11:53.666Z,21.13
2022-07-31T02:14:25.074Z,21.42
2022-07-31T02:16:54.162Z,21.32
2022-07-31T02:19:25.752Z,21.27
2022-07-31T02:21:56.034Z,21.45
2022-07-31T02:24:23.787Z,21.33
2022-07-31T02:26:51.988Z,21.83
2022-07-31T02:29:21.920Z,21.43
2022-07-31T02:32:03.163Z,21.43
2022-07-31T02:34:35.113Z,21.51
2022-07-31T02:37:04.895Z,21.78
2022-07-31T02:39:34.803Z,22.04
2022-07-31T02:42:07.295Z,21.64
2022-07-31T02:44:37.945Z,21.83
2022-07-31T02:47:06.856Z,21.67
2022-07-31T02:49:35.592Z,22.16
2022-07-31T02:52:06.099Z,22.18
2022-07-31T02:54:39.503Z,22.04
2022-07-31T02:57:08.242Z,21.75
2022-07-31T02:59:38.273Z,22.06
2022-07-31T03:02:07.579Z,22.24
2022-07-31T03:04:41.468Z,21.96
2022-07-31T03:07:10.665Z,22.07
2022-07-31T03:09:39.452Z,22.22
2022-07-31T03:12:09.871Z,22.01
2022-07-31T03:14:39.013Z,21.76
2022-07-31T03:17:08.462Z,21.63
2022-07-31T03:19:36.917Z,20.59
2022-07-31T03:22:10.197Z,21.01
2022-07-31T03:24:41.719Z,21.21
2022-07-31T03:27:13.067Z,21.17
2022-07-31T03:29:43.899Z,21.43
2022-07-31T03:32:16.269Z,21.61
2022-07-31T03:34:49.151Z,21.60
2022-07-31T03:37:20.795Z,21.78
2022-07-31T03:39:52.003Z,21.60
2022-07-31T03:42:26.601Z,21.42
2022-07-31T03:44:57.063Z,21.11
2022-07-31T03:47:26.675Z,21.49
2022-07-31T03:49:54.751Z,21.70
2022-07-31T03:52:23.559Z,21.45
2022-07-31T03:54:52.637Z,21.56
2022-07-31T03:57:22.299Z,21.27
2022-07-31T03:59:58.215Z,21.56
2022-07-31T04:02:29.024Z,20.79
2022-07-31T04:04:59.671Z,20.91
2022-07-31T04:07:28.177Z,21.21
2022-07-31T04:09:56.736Z,21.50
2022-07-31T04:12:25.492Z,21.35
2022-07-31T04:14:53.662Z,21.26
2022-07-31T04:17:21.756Z,21.31
2022-07-31T04:19:50.356Z,21.40
2022-07-31T04:22:18.543Z,21.03
2022-07-31T04:24:46.327Z,21.44
2022-07-31T04:27:19.101Z,21.26
2022-07-31T04:29:49.358Z,21.68
2022-07-31T04:32:17.884Z,21.01
2022-07-31T04:34:47.015Z,21.30
2022-07-31T04:37:15.046Z,21.49
2022-07-31T04:39:44.242Z,21.09
2022-07-31T04:42:12.769Z,21.05
2022-07-31T04:44:40.951Z,21.08
2022-07-31T04:47:09.430Z,21.32
2022-07-31T04:49:39.421Z,21.36
2022-07-31T04:52:08.887Z,21.09
2022-07-31T04:54:39.166Z,21.35
2022-07-31T04:57:09.655Z,21.38
2022-07-31T04:59:59.962Z,20.91
2022-07-31T05:02:26.342Z,20.83
2022-07-31T05:04:56.402Z,20.84
2022-07-31T05:07:29.119Z,21.32
2022-07-31T05:10:02.281Z,21.24
2022-07-31T05:12:32.433Z,21.30
2022-07-31T05:15:01.628Z,21.29
2022-07-31T05:17:30.725Z,21.44
2022-07-31T05:19:59.594Z,21.26
2022-07-31T05:22:29.378Z,21.14
2022-07-31T05:24:59.378Z,21.44
2022-07-31T05:27:29.566Z,21.58
2022-07-31T05:30:01.163Z,21.43
2022-07-31T05:32:29.621Z,21.49
2022-07-31T05:34:58.568Z,21.58
2022-07-31T05:37:27.176Z,21.20
2022-07-31T05:39:57.010Z,21.19
2022-07-31T05:42:33.398Z,21.50
2022-07-31T05:45:03.921Z,21.31
2022-07-31T05:47:40.923Z,21.19
2022-07-31T05:50:10.907Z,21.27
2022-07-31T05:52:41.843Z,21.12
2022-07-31T05:55:12.531Z,21.36
2022-07-31T05:57:42.480Z,21.08
2022-07-31T06:00:12.643Z,21.21
2022-07-31T06:02:43.156Z,21.11
2022-07-31T06:05:13.224Z,21.26
2022-07-31T06:07:51.051Z,21.24
2022-07-31T06:10:21.671Z,21.34
2022-07-31T06:12:51.371Z,21.30
2022-07-31T06:15:20.548Z,21.21
2022-07-31T06:17:50.649Z,21.36
2022-07-31T06:20:21.092Z,21.16
2022-07-31T06:22:51.215Z,21.18
2022-07-31T06:25:19.273Z,21.19
2022-07-31T06:27:50.939Z,21.32
2022-07-31T06:30:24.676Z,21.33
2022-07-31T06:32:52.749Z,20.42
2022-07-31T06:35:21.560Z,20.99
2022-07-31T06:37:51.929Z,21.21
2022-07-31T06:40:21.721Z,21.49
2022-07-31T06:42:51.338Z,21.20
2022-07-31T06:45:41.591Z,21.45
2022-07-31T06:48:15.188Z,21.15
2022-07-31T06:50:43.796Z,21.23
2022-07-31T06:53:16.318Z,21.29
2022-07-31T06:55:44.882Z,21.12
2022-07-31T06:58:14.024Z,21.28
2022-07-31T07:00:42.077Z,21.02
2022-07-31T07:03:10.121Z,20.99
2022-07-31T07:05:39.675Z,21.09
2022-07-31T07:08:09.755Z,21.26
2022-07-31T07:10:38.366Z,21.27
2022-07-31T07:13:13.038Z,21.60
2022-07-31T07:15:42.892Z,21.46
2022-07-31T07:18:11.954Z,21.62
2022-07-31T07:20:41.725Z,21.68
2022-07-31T07:23:10.635Z,21.31
2022-07-31T07:25:44.939Z,21.24
2022-07-31T07:28:29.420Z,21.22
2022-07-31T07:31:00.013Z,21.40
2022-07-31T07:33:39.831Z,21.75
2022-07-31T07:36:22.953Z,21.66
2022-07-31T07:38:55.182Z,21.90
2022-07-31T07:41:25.451Z,21.85
2022-07-31T07:43:54.135Z,22.19
2022-07-31T07:46:24.057Z,21.98
2022-07-31T07:48:53.420Z,22.04
2022-07-31T07:51:25.786Z,22.42
2022-07-31T07:53:54.322Z,22.29
2022-07-31T07:56:28.727Z,22.29
2022-07-31T07:58:58.221Z,22.38
2022-07-31T08:01:28.456Z,22.35
2022-07-31T08:04:03.984Z,22.40
2022-07-31T08:06:32.790Z,22.49
2022-07-31T08:09:01.176Z,22.54
2022-07-31T08:11:35.454Z,22.49
2022-07-31T08:14:06.037Z,22.79
2022-07-31T08:16:35.736Z,22.83
2022-07-31T08:19:03.654Z,22.75
2022-07-31T08:21:35.069Z,22.72
2022-07-31T08:24:02.895Z,22.88
2022-07-31T08:26:51.042Z,23.20
2022-07-31T08:29:26.505Z,23.48
2022-07-31T08:32:01.231Z,23.64
2022-07-31T08:34:30.818Z,23.52
2022-07-31T08:37:51.052Z,23.68
2022-07-31T08:39:51.098Z,23.60
2022-07-31T08:42:20.434Z,23.82
2022-07-31T08:44:49.404Z,23.81
2022-07-31T08:47:19.005Z,23.79
2022-07-31T08:49:48.808Z,23.91
2022-07-31T08:52:26.472Z,23.70
2022-07-31T08:54:55.288Z,23.53
2022-07-31T08:57:24.366Z,23.76
2022-07-31T08:59:52.825Z,23.82
2022-07-31T09:02:20.875Z,23.81
2022-07-31T09:04:52.815Z,23.63
2022-07-31T09:07:22.101Z,23.32
2022-07-31T09:09:51.492Z,23.57
2022-07-31T09:12:33.167Z,23.34
2022-07-31T09:15:03.294Z,23.42
2022-07-31T09:17:34.978Z,23.00
2022-07-31T09:20:04.797Z,23.00
2022-07-31T09:22:34.054Z,22.75
2022-07-31T09:25:18.920Z,22.75
2022-07-31T09:27:48.361Z,22.82
2022-07-31T09:30:17.375Z,23.12
2022-07-31T09:32:48.495Z,23.16
2022-07-31T09:35:17.088Z,22.81
2022-07-31T09:37:47.539Z,22.96
2022-07-31T09:40:23.298Z,23.07
2022-07-31T09:43:00.174Z,23.11
2022-07-31T09:45:31.609Z,23.12
2022-07-31T09:48:04.965Z,23.11
2022-07-31T09:50:52.428Z,22.78
2022-07-31T09:53:21.466Z,22.89
2022-07-31T09:55:56.381Z,23.05
2022-07-31T09:58:25.082Z,23.08
2022-07-31T10:00:54.595Z,23.12
2022-07-31T10:03:25.472Z,22.85
2022-07-31T10:05:55.517Z,23.40
2022-07-31T10:08:29.258Z,23.30
2022-07-31T10:11:03.170Z,23.58
2022-07-31T10:13:42.355Z,23.73
2022-07-31T10:16:10.915Z,23.65
2022-07-31T10:18:44.571Z,23.67
2022-07-31T10:21:13.923Z,23.73
2022-07-31T10:23:44.406Z,23.98
2022-07-31T10:26:13.710Z,23.64
2022-07-31T10:28:42.848Z,23.84
2022-07-31T10:31:12.521Z,23.59
2022-07-31T10:33:44.395Z,24.07
2022-07-31T10:36:30.348Z,24.07
2022-07-31T10:39:04.568Z,24.14
2022-07-31T10:41:37.045Z,24.15
2022-07-31T10:44:13.642Z,23.84
2022-07-31T10:46:43.652Z,23.96
2022-07-31T10:49:12.544Z,23.96
2022-07-31T10:51:51.327Z,23.94
2022-07-31T10:54:20.827Z,23.91
2022-07-31T10:56:49.763Z,24.03
2022-07-31T10:59:28.557Z,23.86
2022-07-31T11:01:57.146Z,24.30
2022-07-31T11:04:27.783Z,24.32
2022-07-31T11:06:57.370Z,24.75
2022-07-31T11:09:28.749Z,24.86
2022-07-31T11:11:57.918Z,24.74
2022-07-31T11:14:34.757Z,24.95
2022-07-31T11:17:04.838Z,24.84
2022-07-31T11:19:41.662Z,24.79
2022-07-31T11:22:31.894Z,24.67
2022-07-31T11:25:01.045Z,24.65
2022-07-31T11:27:32.982Z,24.61
2022-07-31T11:30:13.098Z,24.81
2022-07-31T11:32:47.924Z,24.92
2022-07-31T11:35:31.796Z,24.87
2022-07-31T11:38:01.586Z,24.99
2022-07-31T11:40:32.389Z,25.31
2022-07-31T11:45:52.821Z,25.34
2022-07-31T11:48:22.467Z,25.43
2022-07-31T11:50:51.371Z,25.62
2022-07-31T11:53:21.425Z,25.91
2022-07-31T11:55:54.130Z,25.81
2022-07-31T11:58:25.753Z,25.98
2022-07-31T12:00:58.992Z,25.99
2022-07-31T12:03:32.961Z,25.72
2022-07-31T12:06:00.947Z,25.78
2022-07-31T12:08:29.634Z,25.42
2022-07-31T12:11:00.164Z,25.60
2022-07-31T12:13:29.325Z,25.31
2022-07-31T12:16:09.748Z,25.55
2022-07-31T12:18:50.208Z,25.78
2022-07-31T12:21:19.332Z,25.63
2022-07-31T12:23:51.817Z,25.51
2022-07-31T12:26:25.849Z,25.27
2022-07-31T12:29:01.648Z,24.81
2022-07-31T12:31:32.614Z,25.05
2022-07-31T12:34:00.846Z,25.18
2022-07-31T12:36:31.559Z,25.25
2022-07-31T12:39:01.607Z,24.97
2022-07-31T12:41:31.357Z,25.16
2022-07-31T12:44:13.393Z,24.95
2022-07-31T12:46:43.045Z,24.78
2022-07-31T12:49:11.352Z,24.93
2022-07-31T12:51:45.578Z,25.02
2022-07-31T12:54:18.291Z,25.26
2022-07-31T12:56:47.057Z,25.01
2022-07-31T12:59:15.420Z,24.97
2022-07-31T13:01:43.732Z,24.81
2022-07-31T13:04:18.630Z,24.58
2022-07-31T13:06:52.040Z,23.90
2022-07-31T13:09:20.639Z,24.38
2022-07-31T13:11:55.828Z,24.37
2022-07-31T13:14:26.167Z,24.30
2022-07-31T13:16:55.627Z,24.20
2022-07-31T13:19:23.662Z,23.74
2022-07-31T13:21:52.047Z,23.97
2022-07-31T13:24:25.713Z,23.91
2022-07-31T13:26:53.958Z,23.99
2022-07-31T13:29:21.914Z,24.06
2022-07-31T13:31:51.274Z,24.38
2022-07-31T13:34:19.970Z,23.66
2022-07-31T13:36:48.652Z,23.77
2022-07-31T13:39:17.386Z,23.68
2022-07-31T13:41:45.275Z,23.39
2022-07-31T13:44:13.742Z,23.74
2022-07-31T13:46:43.853Z,23.80
2022-07-31T13:49:13.810Z,23.35
2022-07-31T13:51:41.518Z,23.81
2022-07-31T13:54:10.239Z,24.26
2022-07-31T13:56:42.987Z,24.04
2022-07-31T13:59:12.621Z,24.16
2022-07-31T14:02:04.651Z,24.61
2022-07-31T14:04:32.410Z,23.99
2022-07-31T14:07:04.093Z,24.44
2022-07-31T14:09:34.860Z,24.52
2022-07-31T14:12:03.620Z,24.21
2022-07-31T14:14:32.937Z,24.52
2022-07-31T14:17:01.068Z,24.54
2022-07-31T14:19:29.249Z,24.79
2022-07-31T14:21:58.142Z,24.46
2022-07-31T14:24:26.324Z,24.50
2022-07-31T14:26:54.517Z,24.81
2022-07-31T14:29:22.911Z,24.72
2022-07-31T14:31:51.466Z,24.72
2022-07-31T14:34:20.487Z,24.73
2022-07-31T14:36:49.622Z,24.53
2022-07-31T14:39:17.718Z,24.20
2022-07-31T14:41:45.676Z,24.31
2022-07-31T14:44:18.394Z,23.92
2022-07-31T14:46:50.289Z,24.11
2022-07-31T14:49:19.293Z,23.70
2022-07-31T14:51:47.416Z,23.53
2022-07-31T14:54:16.189Z,23.60
2022-07-31T14:57:00.886Z,23.76
2022-07-31T14:59:30.622Z,23.32
2022-07-31T15:01:59.164Z,23.23
2022-07-31T15:04:27.226Z,23.35
2022-07-31T15:07:12.674Z,23.57
2022-07-31T15:09:45.054Z,23.54
2022-07-31T15:12:16.979Z,23.85
2022-07-31T15:14:45.725Z,24.06
2022-07-31T15:17:14.379Z,23.91
2022-07-31T15:19:41.986Z,23.75
2022-07-31T15:22:16.743Z,24.29
2022-07-31T15:24:49.265Z,24.40
2022-07-31T15:27:19.344Z,24.73
2022-07-31T15:30:03.886Z,24.77
2022-07-31T15:32:37.019Z,24.64
2022-07-31T15:35:09.619Z,25.16
2022-07-31T15:37:40.467Z,25.10
2022-07-31T15:40:11.535Z,25.01
2022-07-31T15:42:41.880Z,25.18
2022-07-31T15:45:14.863Z,25.19
2022-07-31T15:47:45.523Z,25.19
2022-07-31T15:50:17.261Z,25.11
2022-07-31T15:52:45.897Z,25.23
2022-07-31T15:55:14.690Z,25.11
2022-07-31T15:57:43.328Z,25.23
2022-07-31T16:00:14.128Z,25.44
2022-07-31T16:02:45.581Z,25.36
2022-07-31T16:05:19.961Z,24.99
2022-07-31T16:08:30.838Z,25.05
2022-07-31T16:10:39.426Z,24.60
2022-07-31T16:13:07.964Z,25.03
2022-07-31T16:15:35.913Z,25.31
2022-07-31T16:18:04.720Z,24.89
2022-07-31T16:20:33.762Z,25.15
2022-07-31T16:23:01.871Z,25.03
2022-07-31T16:25:31.810Z,24.54
2022-07-31T16:28:04.445Z,25.12
2022-07-31T16:30:32.478Z,24.43
2022-07-31T16:33:04.348Z,24.93
2022-07-31T16:35:32.430Z,24.86
2022-07-31T16:38:00.469Z,24.75
2022-07-31T16:40:31.836Z,24.62
2022-07-31T16:43:03.023Z,24.68
2022-07-31T16:45:50.790Z,24.52
2022-07-31T16:48:19.026Z,24.42
2022-07-31T16:50:53.118Z,24.45
2022-07-31T16:54:11.727Z,24.38
2022-07-31T16:56:12.190Z,24.67
2022-07-31T16:58:40.562Z,23.91
2022-07-31T17:01:58.183Z,23.80
2022-07-31T17:04:00.550Z,23.18
2022-07-31T17:06:35.154Z,23.31
2022-07-31T17:09:15.954Z,23.14
2022-07-31T17:11:48.499Z,23.24
2022-07-31T17:14:19.098Z,23.24
2022-07-31T17:16:49.281Z,23.25
2022-07-31T17:19:42.389Z,23.07
2022-07-31T17:22:11.155Z,23.54
2022-07-31T17:24:40.180Z,23.32
2022-07-31T17:27:08.942Z,23.30
2022-07-31T17:29:38.038Z,23.33
2022-07-31T17:32:06.754Z,23.39
2022-07-31T17:34:35.670Z,23.58
2022-07-31T17:37:05.184Z,23.62
2022-07-31T17:39:33.606Z,23.58
2022-07-31T17:42:01.571Z,23.72
2022-07-31T17:44:31.136Z,23.81
2022-07-31T17:47:03.719Z,23.77
2022-07-31T17:49:33.409Z,24.00
2022-07-31T17:52:01.848Z,23.80
2022-07-31T17:54:31.709Z,23.70
2022-07-31T17:57:02.498Z,23.67
2022-07-31T17:59:31.189Z,23.52
2022-07-31T18:02:05.776Z,23.51
2022-07-31T18:04:39.573Z,23.48
2022-07-31T18:07:08.054Z,23.63
2022-07-31T18:09:37.211Z,23.71
2022-07-31T18:12:06.142Z,23.64
2022-07-31T18:14:34.566Z,23.78
2022-07-31T18:17:04.475Z,23.70
2022-07-31T18:19:33.065Z,23.59
2022-07-31T18:22:00.719Z,23.72
2022-07-31T18:24:29.365Z,23.39
2022-07-31T18:26:57.418Z,23.43
2022-07-31T18:29:26.094Z,23.59
2022-07-31T18:31:54.462Z,23.61
2022-07-31T18:34:22.817Z,23.50
2022-07-31T18:36:54.788Z,23.39
2022-07-31T18:39:24.485Z,23.44
2022-07-31T18:41:52.826Z,23.46
2022-07-31T18:44:22.205Z,23.54
2022-07-31T18:46:50.872Z,23.62
2022-07-31T18:51:00.415Z,23.39
2022-07-31T18:52:09.983Z,23.50
2022-07-31T18:54:39.086Z,23.35
2022-07-31T18:57:08.579Z,23.40
2022-07-31T18:59:37.637Z,23.30
2022-07-31T19:02:05.986Z,23.47
2022-07-31T19:04:36.924Z,23.27
2022-07-31T19:07:04.942Z,22.76
2022-07-31T19:09:34.702Z,22.82
2022-07-31T19:12:08.044Z,22.36
2022-07-31T19:14:37.037Z,22.06
2022-07-31T19:17:08.483Z,22.09
2022-07-31T19:19:52.783Z,21.96
2022-07-31T19:22:24.107Z,22.59
2022-07-31T19:24:52.983Z,22.30
2022-07-31T19:27:21.847Z,22.29
2022-07-31T19:30:10.795Z,22.38
2022-07-31T19:32:40.928Z,22.57
2022-07-31T19:35:09.836Z,22.55
2022-07-31T19:37:38.150Z,22.51
2022-07-31T19:40:08.801Z,22.40
2022-07-31T19:42:38.478Z,22.45
2022-07-31T19:45:06.838Z,22.44
2022-07-31T19:47:35.321Z,22.66
2022-07-31T19:50:04.115Z,22.00
2022-07-31T19:52:32.675Z,22.13
2022-07-31T19:55:01.141Z,22.28
2022-07-31T19:57:29.851Z,22.30
2022-07-31T19:59:58.912Z,22.21
2022-07-31T20:02:26.890Z,21.64
2022-07-31T20:04:56.726Z,22.00
2022-07-31T20:07:32.691Z,22.17
2022-07-31T20:10:02.538Z,22.28
2022-07-31T20:12:31.016Z,22.00
2022-07-31T20:14:59.508Z,21.97
2022-07-31T20:17:29.615Z,22.13
2022-07-31T20:20:12.661Z,21.82
2022-07-31T20:22:47.272Z,21.90
2022-07-31T20:25:20.113Z,22.16
2022-07-31T20:27:52.274Z,22.35
2022-07-31T20:30:22.330Z,22.15
2022-07-31T20:32:53.803Z,22.14
2022-07-31T20:35:45.582Z,22.29
2022-07-31T20:38:22.662Z,22.15
2022-07-31T20:40:56.134Z,21.95
2022-07-31T20:43:30.295Z,21.66
2022-07-31T20:46:00.362Z,21.73
2022-07-31T20:48:35.122Z,21.79
2022-07-31T20:51:04.780Z,21.91
2022-07-31T20:53:34.584Z,22.07
2022-07-31T20:56:03.856Z,21.75
2022-07-31T20:58:31.911Z,21.75
2022-07-31T21:01:00.610Z,21.19
2022-07-31T21:03:30.400Z,21.06
2022-07-31T21:05:59.163Z,21.15
2022-07-31T21:08:27.956Z,21.40
2022-07-31T21:10:56.616Z,21.13
2022-07-31T21:13:29.789Z,21.36
2022-07-31T21:15:58.417Z,20.98
2022-07-31T21:18:26.482Z,21.30
2022-07-31T21:20:54.977Z,21.50
2022-07-31T21:23:24.801Z,21.64
2022-07-31T21:25:55.907Z,21.66
2022-07-31T21:28:26.561Z,21.67
2022-07-31T21:30:56.500Z,21.79
2022-07-31T21:33:27.208Z,21.57
2022-07-31T21:35:55.768Z,21.55
2022-07-31T21:38:24.545Z,21.62
2022-07-31T21:40:55.804Z,21.36
2022-07-31T21:43:25.086Z,21.42
2022-07-31T21:45:57.781Z,21.54
2022-07-31T21:48:32.513Z,21.29
2022-07-31T21:51:01.740Z,21.32
2022-07-31T21:53:30.356Z,21.10
2022-07-31T21:56:02.009Z,21.13
2022-07-31T21:58:31.086Z,21.42
2022-07-31T22:00:59.803Z,21.43
2022-07-31T22:03:33.656Z,21.41
2022-07-31T22:06:26.113Z,21.51
2022-07-31T22:09:00.282Z,21.46
2022-07-31T22:11:31.209Z,21.21
2022-07-31T22:14:05.340Z,21.39
2022-07-31T22:16:41.245Z,21.53
2022-07-31T22:19:14.322Z,21.51
2022-07-31T22:21:43.684Z,21.50
2022-07-31T22:24:15.435Z,21.51
2022-07-31T22:27:08.789Z,21.49
2022-07-31T22:29:40.434Z,21.82
2022-07-31T22:32:25.895Z,21.56
2022-07-31T22:34:57.315Z,21.52
2022-07-31T22:37:27.690Z,21.29
2022-07-31T22:39:58.868Z,21.45
2022-07-31T22:42:31.600Z,21.62
2022-07-31T22:45:02.340Z,21.41
2022-07-31T22:47:30.647Z,20.99
2022-07-31T22:49:59.329Z,21.32
2022-07-31T22:52:34.525Z,21.33
2022-07-31T22:55:07.644Z,21.21
2022-07-31T22:57:43.628Z,21.32
2022-07-31T23:00:14.033Z,20.91
2022-07-31T23:02:43.750Z,21.08
2022-07-31T23:05:13.506Z,20.99
2022-07-31T23:07:42.440Z,20.87
2022-07-31T23:10:12.462Z,20.85
2022-07-31T23:12:40.589Z,20.85
2022-07-31T23:15:09.447Z,20.80
2022-07-31T23:17:37.692Z,20.82
2022-07-31T23:20:06.496Z,20.59
2022-07-31T23:22:35.494Z,20.63
2022-07-31T23:25:06.242Z,20.55
2022-07-31T23:27:34.033Z,20.73
2022-07-31T23:30:07.308Z,20.76
2022-07-31T23:32:35.830Z,20.11
2022-07-31T23:35:05.088Z,20.58
2022-07-31T23:37:34.036Z,20.51
2022-07-31T23:40:02.223Z,20.31
2022-07-31T23:42:39.500Z,20.15
2022-07-31T23:45:12.974Z,20.30
2022-07-31T23:47:45.902Z,20.10
2022-07-31T23:50:16.097Z,19.89
2022-07-31T23:52:44.262Z,20.43
2022-07-31T23:55:13.266Z,20.36
2022-07-31T23:57:41.831Z,20.47
